首页
METAR-TAF:

METAR-TAF

机场 :

蒙特利尔皮埃尔·埃利奥特·特鲁多国际机场

蒙特利尔特鲁多, 魁北克, 加拿大

纬度: 45-28N, 经度: 073-45W, 海拔: 31米

当前天气观测

该预报发布于38分钟前的19:00 UTC
风速5节,风向
温度 -5°C
湿度 53%
气压 1031 hPa
能見度: 24.1公里
阴天层高于19000英尺

METAR: CYUL 151900Z 10005KT 15SM OVC190 M05/M13 A3044 RMK CS8 SLP313

时间: 14:38 (19:38 UTC)

预报

该预报发布于1小时和46分钟前的17:52 UTC
预报有效从15日的 18点(UTC)到 16日的 18点(UTC)
风速7节,风向
能見度: 10公里
阴天层高于22000英尺
从 16日的 0100点(UTC)
风速12节,风向东转东北
能見度: 10公里
阴天层高于16000英尺
从 16日的 0500点(UTC)
风速10节,风向
能見度: 9.7公里
多云层高于3000英尺
阴天层高于8000英尺
小雪
从 16日的 0700点(UTC)
风速12节,风向东北
能見度: 0.8公里
层高于1200英尺
从 16日的 1200点(UTC)
风速12节,风向东北
多云层高于3000英尺
小雪
从 16日的 1400点(UTC)
风速10节,风向东北,有时为20节阵风
能見度: 4.8公里
多云层高于2000英尺
小雪

TAF: CYUL 151752Z 1518/1618 08007KT P6SM OVC220 FM160100 07012KT P6SM OVC160 FM160500 09010KT 6SM -SN BKN030 OVC080 FM160700 05012KT 1/2SM SN VV012 FM161200 05012KT 21/2SM -SN BKN030 FM161400 05010G20KT 3SM -SN BKN020 RMK NXT FCST BY 152100Z

超过4000个机场的气象观测和天气预报(METAR&TAF报告)。

可查询的气象台以黄色和红色小点在地图上表示。

将鼠标移到小点上方,可查看气象台名称。

然后点击查看天气观测和预报。

如需切换地图:点击带黑十字的绿色按钮放大地图;点击带横线的绿色按钮缩小地图;或者点击绿色箭头查看邻近地区的地图。


METAR-TAF: